Not for real navigation | The accuracy of this data is not assured | See disclaimer for more information
ICAO NAME COUNTRY WIND Kt GUST Kt VIS TEMP/DEW BARO
OPMT Multan Pakistan 6 0 4000 21/17 29.88
OPMT 310630Z 05006KT 4000 FU SCT040 SCT100 21/17 Q1012 TEMPO 36020KT 2000 TSRA FEW030CB
PACD COLD BAY AIRPORT AK United States 16 0 4800 0/-1 29.92
PACD 310602Z AUTO 14016KT 3SM UP BR OVC012 00/M01 A2992 RMK AO2 UPB02SNE02 P0000 T00001006 TS
LGIR Heraklion Airport Greece 9 0 9000 15/12 29.74
LGIR 310620Z 34009KT 9000 TS FEW018CB BKN025 BKN090 15/12 Q1007 TEMPO TS
BGTL Thule A. B. Greenland 5 0 9999 -22/-26 29.72
BGTL 310556Z AUTO 10005KT 9999 CAVOK M22/M26 A2972 RMK AO2 SLP056 T12211257 11209 21245 57034 TS $
K1CW 6 0 9999 3/1 30.06
K1CW 310558Z AUTO 22006KT 10SM CAVOK 03/01 A3006 RMK AO2 SLP170 T00310005 10123 20031 50001 TS $

Show more

Close Menu